createdAt,value
2022-07-25T00:03:37.366Z,15.53
2022-07-25T00:06:06.764Z,17.45
2022-07-25T00:08:40.566Z,15.60
2022-07-25T00:11:07.617Z,20.05
2022-07-25T00:13:34.875Z,21.80
2022-07-25T00:16:02.060Z,16.52
2022-07-25T00:18:29.117Z,16.67
2022-07-25T00:20:56.214Z,16.70
2022-07-25T00:23:23.273Z,18.67
2022-07-25T00:25:50.469Z,21.50
2022-07-25T00:28:17.860Z,21.50
2022-07-25T00:30:44.968Z,16.00
2022-07-25T00:33:12.136Z,21.27
2022-07-25T00:35:42.064Z,17.00
2022-07-25T00:38:11.159Z,15.32
2022-07-25T00:40:38.334Z,14.65
2022-07-25T00:43:08.406Z,12.00
2022-07-25T00:45:35.395Z,10.88
2022-07-25T00:48:02.457Z,11.20
2022-07-25T00:50:30.163Z,11.10
2022-07-25T00:52:57.443Z,19.05
2022-07-25T00:55:26.333Z,16.38
2022-07-25T00:57:53.414Z,11.60
2022-07-25T01:00:20.519Z,11.02
2022-07-25T01:02:50.900Z,14.07
2022-07-25T01:05:18.344Z,10.32
2022-07-25T01:07:46.927Z,13.52
2022-07-25T01:10:14.007Z,14.50
2022-07-25T01:12:59.458Z,11.15
2022-07-25T01:15:27.324Z,14.35
2022-07-25T01:17:54.483Z,15.15
2022-07-25T01:20:27.042Z,14.63
2022-07-25T01:22:55.144Z,11.00
2022-07-25T01:25:23.458Z,14.35
2022-07-25T01:27:55.472Z,15.18
2022-07-25T01:30:26.422Z,9.82
2022-07-25T01:32:53.760Z,9.10
2022-07-25T01:35:20.868Z,12.80
2022-07-25T01:37:48.064Z,11.73
2022-07-25T01:40:15.344Z,13.07
2022-07-25T01:42:43.917Z,9.20
2022-07-25T01:45:12.383Z,12.98
2022-07-25T01:47:39.817Z,12.68
2022-07-25T01:50:08.487Z,13.18
2022-07-25T01:52:37.890Z,15.75
2022-07-25T01:55:06.223Z,12.98
2022-07-25T01:57:33.636Z,12.93
2022-07-25T02:00:05.545Z,9.18
2022-07-25T02:02:32.695Z,13.18
2022-07-25T02:04:59.796Z,11.82
2022-07-25T02:07:26.869Z,9.05
2022-07-25T02:09:56.860Z,7.50
2022-07-25T02:12:24.136Z,9.70
2022-07-25T02:14:51.457Z,7.43
2022-07-25T03:59:21.662Z,14.30
2022-07-25T04:01:50.677Z,9.40
2022-07-25T04:04:19.711Z,12.77
2022-07-25T04:06:47.422Z,14.20
2022-07-25T04:09:15.924Z,10.88
2022-07-25T04:11:43.211Z,10.45
2022-07-25T04:14:10.554Z,13.48
2022-07-25T04:16:38.078Z,13.43
2022-07-25T04:19:07.206Z,10.75
2022-07-25T04:21:36.202Z,13.00
2022-07-25T04:24:03.795Z,14.13
2022-07-25T04:26:31.352Z,17.67
2022-07-25T04:29:02.833Z,18.75
2022-07-25T04:31:29.767Z,11.45
2022-07-25T04:33:57.077Z,21.92
2022-07-25T04:36:24.412Z,13.40
2022-07-25T04:38:51.714Z,14.18
2022-07-25T04:41:19.272Z,9.80
2022-07-25T04:43:48.863Z,15.18
2022-07-25T04:46:21.078Z,12.70
2022-07-25T04:48:48.744Z,8.95
2022-07-25T04:51:17.022Z,8.80
2022-07-25T04:53:44.751Z,8.75
2022-07-25T04:56:11.882Z,13.98
2022-07-25T04:58:39.084Z,13.02
2022-07-25T05:01:06.444Z,17.70
2022-07-25T05:03:33.653Z,12.73
2022-07-25T05:06:00.810Z,11.35
2022-07-25T05:08:28.046Z,11.43
2022-07-25T05:10:55.078Z,17.13
2022-07-25T05:13:22.134Z,9.25
2022-07-25T05:15:49.024Z,14.52
2022-07-25T05:18:15.993Z,10.38
2022-07-25T05:20:43.084Z,8.88
2022-07-25T05:23:12.305Z,13.15
2022-07-25T05:25:39.415Z,10.55
2022-07-25T05:28:06.611Z,24.67
2022-07-25T05:30:37.924Z,8.32
2022-07-25T05:33:06.925Z,13.05
2022-07-25T05:35:33.931Z,6.63
2022-07-25T05:38:01.011Z,18.42
2022-07-25T05:40:28.500Z,7.32
2022-07-25T05:43:00.810Z,6.50
2022-07-25T05:45:29.966Z,20.10
2022-07-25T05:47:56.985Z,8.60
2022-07-25T05:50:26.227Z,8.50
2022-07-25T05:52:53.533Z,7.50
2022-07-25T05:55:20.584Z,11.10
2022-07-25T05:57:47.575Z,15.73
2022-07-25T06:00:14.963Z,10.93
2022-07-25T06:02:41.979Z,9.07
2022-07-25T06:05:09.596Z,8.48
2022-07-25T06:07:36.580Z,10.30
2022-07-25T06:10:04.702Z,8.07
2022-07-25T06:12:33.846Z,10.32
2022-07-25T06:15:04.983Z,7.72
2022-07-25T06:17:32.815Z,8.20
2022-07-25T06:20:00.211Z,5.25
2022-07-25T06:22:27.200Z,7.65
2022-07-25T06:24:54.194Z,9.85
2022-07-25T06:27:23.923Z,6.18
2022-07-25T06:29:53.118Z,6.22
2022-07-25T06:32:20.208Z,7.18
2022-07-25T06:34:47.210Z,8.00
2022-07-25T06:37:14.257Z,7.65
2022-07-25T06:39:45.476Z,6.38
2022-07-25T06:42:12.961Z,7.22
2022-07-25T06:44:39.897Z,8.40
2022-07-25T06:47:12.900Z,5.65
2022-07-25T06:49:43.345Z,6.93
2022-07-25T06:52:11.172Z,8.45
2022-07-25T06:54:38.130Z,6.20
2022-07-25T06:57:05.462Z,8.40
2022-07-25T06:59:33.509Z,6.50
2022-07-25T07:02:01.526Z,7.88
2022-07-25T07:04:28.674Z,5.28
2022-07-25T07:06:55.717Z,7.95
2022-07-25T07:09:22.868Z,5.38
2022-07-25T07:11:50.038Z,7.43
2022-07-25T07:14:16.965Z,12.90
2022-07-25T07:16:43.918Z,5.13
2022-07-25T07:19:14.757Z,10.75
2022-07-25T07:21:42.617Z,7.40
2022-07-25T07:24:23.950Z,8.35
2022-07-25T07:26:52.068Z,8.30
2022-07-25T07:29:19.327Z,10.18
2022-07-25T07:31:46.285Z,7.97
2022-07-25T07:34:14.475Z,7.95
2022-07-25T07:36:43.428Z,8.35
2022-07-25T07:39:10.386Z,6.40
2022-07-25T07:41:37.345Z,5.85
2022-07-25T07:44:06.094Z,4.50
2022-07-25T07:46:33.290Z,4.68
2022-07-25T07:49:00.328Z,3.92
2022-07-25T07:51:27.306Z,8.35
2022-07-25T07:54:12.678Z,5.88
2022-07-25T07:56:39.818Z,7.97
2022-07-25T07:59:07.536Z,7.50
2022-07-25T08:01:35.347Z,5.85
2022-07-25T08:04:02.258Z,8.35
2022-07-25T08:06:29.306Z,7.68
2022-07-25T08:08:56.350Z,5.35
2022-07-25T08:11:23.377Z,7.60
2022-07-25T08:13:50.313Z,8.82
2022-07-25T08:16:17.383Z,5.03
2022-07-25T08:18:44.657Z,5.65
2022-07-25T08:21:11.809Z,5.57
2022-07-25T08:23:39.322Z,5.45
2022-07-25T08:26:08.033Z,7.25
2022-07-25T08:28:35.209Z,6.53
2022-07-25T08:31:02.169Z,6.65
2022-07-25T08:33:29.361Z,3.75
2022-07-25T08:35:56.555Z,5.32
2022-07-25T08:38:25.351Z,5.93
2022-07-25T08:40:54.186Z,4.10
2022-07-25T08:43:21.419Z,5.32
2022-07-25T08:45:52.183Z,4.00
2022-07-25T08:48:22.008Z,3.95
2022-07-25T08:50:50.187Z,8.88
2022-07-25T08:53:35.792Z,4.13
2022-07-25T08:56:12.623Z,6.78
2022-07-25T08:58:43.739Z,3.95
2022-07-25T09:01:11.987Z,5.22
2022-07-25T09:03:39.297Z,7.10
2022-07-25T09:06:17.948Z,5.22
2022-07-25T09:09:01.427Z,4.65
2022-07-25T09:11:29.729Z,3.10
2022-07-25T09:14:06.818Z,7.13
2022-07-25T09:16:41.222Z,3.10
2022-07-25T09:19:12.985Z,3.38
2022-07-25T09:21:41.555Z,4.28
2022-07-25T09:24:16.613Z,4.40
2022-07-25T09:26:54.872Z,5.97
2022-07-25T09:29:23.488Z,3.35
2022-07-25T09:31:51.458Z,3.85
2022-07-25T09:34:41.629Z,8.45
2022-07-25T09:37:13.138Z,4.57
2022-07-25T09:39:48.889Z,4.30
2022-07-25T09:42:32.503Z,5.47
2022-07-25T09:45:04.965Z,3.55
2022-07-25T09:47:34.619Z,4.22
2022-07-25T09:50:02.491Z,3.70
2022-07-25T09:52:29.767Z,6.40
2022-07-25T09:54:56.927Z,8.48
2022-07-25T09:57:25.977Z,3.25
2022-07-25T09:59:54.152Z,5.30
2022-07-25T10:02:53.997Z,5.15
2022-07-25T10:05:33.000Z,5.60
2022-07-25T10:08:01.084Z,4.80
2022-07-25T10:10:37.945Z,4.65
2022-07-25T10:13:28.775Z,3.88
2022-07-25T10:15:55.862Z,6.82
2022-07-25T10:18:25.494Z,5.95
2022-07-25T10:20:55.324Z,7.00
2022-07-25T10:23:25.973Z,6.07
2022-07-25T10:26:16.537Z,4.57
2022-07-25T10:28:49.956Z,7.35
2022-07-25T10:31:27.090Z,5.53
2022-07-25T10:33:57.070Z,6.47
2022-07-25T10:36:26.438Z,4.00
2022-07-25T10:38:57.737Z,4.75
2022-07-25T10:41:29.144Z,5.97
2022-07-25T10:44:02.469Z,4.88
2022-07-25T10:46:31.213Z,7.15
2022-07-25T10:49:08.790Z,3.88
2022-07-25T10:51:41.499Z,5.20
2022-07-25T10:54:17.466Z,5.47
2022-07-25T10:56:58.417Z,4.70
2022-07-25T10:59:36.723Z,3.53
2022-07-25T11:02:08.667Z,7.72
2022-07-25T11:04:36.633Z,3.70
2022-07-25T11:07:15.792Z,6.30
2022-07-25T11:09:44.058Z,5.47
2022-07-25T11:12:16.437Z,4.05
2022-07-25T11:14:43.742Z,5.22
2022-07-25T11:17:16.227Z,9.20
2022-07-25T11:19:45.194Z,4.45
2022-07-25T11:22:12.649Z,8.05
2022-07-25T11:24:43.111Z,4.75
2022-07-25T11:27:12.745Z,4.88
2022-07-25T11:29:40.991Z,5.78
2022-07-25T11:32:11.359Z,8.00
2022-07-25T11:34:42.434Z,4.82
2022-07-25T11:37:11.725Z,4.07
2022-07-25T11:39:44.826Z,4.93
2022-07-25T11:42:16.541Z,5.88
2022-07-25T11:44:48.171Z,4.30
2022-07-25T11:47:29.391Z,18.10
2022-07-25T11:49:58.836Z,6.45
2022-07-25T11:52:32.197Z,6.03
2022-07-25T11:55:02.947Z,7.35
2022-07-25T11:57:32.428Z,5.03
2022-07-25T12:00:00.872Z,5.70
2022-07-25T12:02:35.500Z,5.88
2022-07-25T12:05:10.512Z,5.40
2022-07-25T12:07:44.931Z,8.15
2022-07-25T12:10:22.927Z,3.85
2022-07-25T12:12:57.635Z,6.80
2022-07-25T12:15:30.168Z,4.18
2022-07-25T12:17:58.411Z,3.80
2022-07-25T12:20:31.334Z,4.28
2022-07-25T12:23:03.288Z,6.05
2022-07-25T12:25:31.336Z,4.10
2022-07-25T12:27:59.575Z,5.85
2022-07-25T12:30:28.017Z,3.35
2022-07-25T12:32:56.355Z,5.97
2022-07-25T12:35:23.870Z,14.57
2022-07-25T12:37:52.196Z,7.78
2022-07-25T12:40:20.310Z,3.83
2022-07-25T12:42:48.254Z,6.38
2022-07-25T12:45:17.436Z,3.45
2022-07-25T12:47:45.653Z,3.70
2022-07-25T12:50:14.116Z,5.53
2022-07-25T12:52:42.024Z,4.30
2022-07-25T12:55:12.343Z,5.65
2022-07-25T12:57:39.677Z,4.72
2022-07-25T13:00:10.356Z,3.92
2022-07-25T13:02:38.098Z,5.65
2022-07-25T13:05:06.054Z,5.97
2022-07-25T13:07:34.295Z,6.05
2022-07-25T13:10:02.468Z,7.00
2022-07-25T13:12:29.573Z,5.80
2022-07-25T13:14:56.951Z,3.53
2022-07-25T13:17:27.517Z,3.55
2022-07-25T13:19:57.791Z,3.97
2022-07-25T13:22:25.806Z,3.10
2022-07-25T13:24:54.873Z,5.65
2022-07-25T13:27:23.534Z,5.80
2022-07-25T13:29:58.129Z,3.67
2022-07-25T13:32:27.854Z,4.28
2022-07-25T13:34:55.434Z,3.78
2022-07-25T13:37:22.362Z,4.88
2022-07-25T13:39:49.490Z,4.85
2022-07-25T13:42:16.602Z,3.50
2022-07-25T13:44:43.656Z,6.40
2022-07-25T13:47:10.900Z,3.47
2022-07-25T13:49:38.676Z,3.90
2022-07-25T13:52:06.285Z,8.00
2022-07-25T13:54:33.492Z,12.15
2022-07-25T13:57:02.560Z,6.60
2022-07-25T13:59:30.255Z,3.95
2022-07-25T14:01:57.525Z,3.78
2022-07-25T14:04:24.673Z,3.47
2022-07-25T14:06:52.403Z,3.95
2022-07-25T14:09:20.882Z,4.93
2022-07-25T14:11:50.874Z,4.47
2022-07-25T14:14:17.892Z,7.10
2022-07-25T14:16:45.161Z,8.88
2022-07-25T14:19:12.873Z,5.30
2022-07-25T14:21:40.003Z,6.00
2022-07-25T14:24:07.434Z,4.55
2022-07-25T14:26:35.740Z,7.38
2022-07-25T14:29:03.506Z,4.82
2022-07-25T14:31:32.355Z,6.80
2022-07-25T14:33:59.553Z,6.03
2022-07-25T14:36:26.442Z,5.03
2022-07-25T14:38:53.552Z,3.35
2022-07-25T14:41:20.636Z,6.13
2022-07-25T14:43:47.624Z,5.30
2022-07-25T14:46:15.927Z,7.25
2022-07-25T14:48:43.349Z,6.97
2022-07-25T14:51:10.371Z,8.77
2022-07-25T14:53:38.850Z,8.40
2022-07-25T14:56:07.976Z,9.10
2022-07-25T14:58:43.298Z,7.35
2022-07-25T15:01:13.491Z,3.63
2022-07-25T15:03:40.716Z,6.40
2022-07-25T15:06:10.086Z,5.05
2022-07-25T15:08:39.337Z,4.00
2022-07-25T15:11:07.268Z,4.20
2022-07-25T15:13:34.506Z,3.78
2022-07-25T15:16:03.374Z,5.53
2022-07-25T15:18:31.208Z,7.20
2022-07-25T15:20:58.921Z,13.65
2022-07-25T15:23:30.243Z,5.90
2022-07-25T15:26:01.774Z,7.90
2022-07-25T15:28:31.587Z,5.30
2022-07-25T15:30:59.283Z,3.80
2022-07-25T15:33:26.836Z,5.82
2022-07-25T15:35:54.976Z,5.05
2022-07-25T15:38:22.712Z,4.03
2022-07-25T15:40:50.289Z,5.65
2022-07-25T15:43:18.025Z,6.80
2022-07-25T15:45:46.883Z,3.78
2022-07-25T15:48:16.712Z,7.40
2022-07-25T15:50:47.009Z,5.95
2022-07-25T15:53:15.327Z,10.07
2022-07-25T15:55:43.079Z,6.45
2022-07-25T15:58:12.077Z,3.97
2022-07-25T16:00:40.509Z,6.03
2022-07-25T16:03:08.775Z,5.15
2022-07-25T16:05:36.657Z,3.55
2022-07-25T16:08:08.884Z,4.38
2022-07-25T16:10:37.347Z,5.55
2022-07-25T16:13:04.987Z,3.22
2022-07-25T16:15:32.166Z,3.85
2022-07-25T16:18:02.693Z,3.75
2022-07-25T16:20:33.137Z,4.28
2022-07-25T16:23:00.866Z,6.80
2022-07-25T16:25:29.820Z,8.40
2022-07-25T16:27:58.868Z,5.07
2022-07-25T16:30:29.437Z,3.50
2022-07-25T16:32:56.707Z,3.47
2022-07-25T16:35:24.433Z,3.92
2022-07-25T16:37:51.696Z,4.18
2022-07-25T16:40:19.676Z,6.03
2022-07-25T16:42:49.836Z,5.30
2022-07-25T16:45:17.238Z,10.77
2022-07-25T16:47:44.897Z,6.15
2022-07-25T16:50:12.156Z,6.28
2022-07-25T16:52:39.488Z,6.75
2022-07-25T16:55:07.297Z,7.82
2022-07-25T16:57:34.767Z,4.65
2022-07-25T17:00:01.866Z,6.43
2022-07-25T17:02:29.890Z,6.93
2022-07-25T17:04:57.496Z,5.75
2022-07-25T17:07:25.017Z,6.43
2022-07-25T17:09:52.380Z,11.20
2022-07-25T17:12:19.738Z,6.43
2022-07-25T17:14:48.000Z,5.13
2022-07-25T17:17:15.280Z,4.15
2022-07-25T17:19:43.188Z,5.50
2022-07-25T17:22:10.666Z,4.60
2022-07-25T17:24:39.483Z,9.90
2022-07-25T17:27:08.367Z,8.07
2022-07-25T17:29:36.166Z,6.10
2022-07-25T17:32:06.288Z,10.38
2022-07-25T17:34:33.905Z,5.30
2022-07-25T17:37:03.291Z,4.68
2022-07-25T17:39:34.566Z,4.53
2022-07-25T17:42:02.358Z,8.63
2022-07-25T17:44:29.616Z,9.82
2022-07-25T17:46:56.881Z,5.85
2022-07-25T17:49:24.385Z,8.00
2022-07-25T17:51:51.697Z,10.52
2022-07-25T17:54:18.937Z,7.97
2022-07-25T17:56:46.086Z,9.52
2022-07-25T17:59:14.436Z,10.32
2022-07-25T18:01:41.859Z,11.52
2022-07-25T18:04:09.491Z,11.77
2022-07-25T18:06:37.055Z,10.68
2022-07-25T18:09:04.452Z,11.88
2022-07-25T18:11:31.464Z,8.07
2022-07-25T18:13:59.706Z,13.63
2022-07-25T18:16:27.116Z,9.63
2022-07-25T18:18:54.710Z,13.60
2022-07-25T18:21:21.794Z,10.90
2022-07-25T18:23:48.909Z,7.18
2022-07-25T18:26:16.152Z,10.93
2022-07-25T18:28:43.115Z,7.90
2022-07-25T18:31:11.219Z,8.82
2022-07-25T18:33:38.362Z,11.07
2022-07-25T18:36:07.706Z,9.63
2022-07-25T18:38:47.953Z,11.93
2022-07-25T18:41:30.636Z,5.45
2022-07-25T18:44:02.914Z,17.73
2022-07-25T18:46:32.402Z,13.02
2022-07-25T18:49:01.346Z,19.75
2022-07-25T18:51:28.324Z,16.15
2022-07-25T18:53:55.597Z,19.38
2022-07-25T18:56:22.628Z,9.55
2022-07-25T18:58:49.764Z,12.02
2022-07-25T19:01:16.862Z,11.88
2022-07-25T19:03:43.947Z,13.80
2022-07-25T19:06:11.016Z,12.20
2022-07-25T19:08:38.529Z,11.77
2022-07-25T19:11:06.539Z,10.88
2022-07-25T19:13:51.113Z,15.13
2022-07-25T19:16:19.403Z,11.95
2022-07-25T19:18:47.075Z,7.97
2022-07-25T19:21:14.336Z,9.40
2022-07-25T19:23:41.613Z,9.80
2022-07-25T19:26:09.596Z,10.57
2022-07-25T19:28:37.098Z,14.02
2022-07-25T19:31:04.376Z,14.52
2022-07-25T19:33:35.932Z,22.20
2022-07-25T19:36:04.485Z,12.55
2022-07-25T19:38:31.896Z,7.63
2022-07-25T19:41:20.077Z,13.23
2022-07-25T19:43:47.331Z,10.10
2022-07-25T19:46:14.698Z,9.55
2022-07-25T19:48:43.175Z,8.65
2022-07-25T19:51:10.927Z,8.70
2022-07-25T19:53:38.267Z,13.93
2022-07-25T19:56:06.897Z,17.70
2022-07-25T19:58:38.387Z,13.65
2022-07-25T20:01:06.173Z,14.82
2022-07-25T20:03:34.012Z,11.35
2022-07-25T20:06:06.062Z,9.65
2022-07-25T20:08:34.923Z,10.10
2022-07-25T20:11:02.065Z,10.30
2022-07-25T20:13:29.967Z,8.75
2022-07-25T20:15:57.513Z,11.55
2022-07-25T20:18:24.977Z,14.95
2022-07-25T20:20:52.076Z,8.57
2022-07-25T20:23:19.683Z,10.70
2022-07-25T20:25:46.916Z,10.90
2022-07-25T20:28:13.984Z,9.82
2022-07-25T20:30:41.271Z,14.45
2022-07-25T20:33:09.999Z,9.80
2022-07-25T20:35:38.596Z,11.90
2022-07-25T20:38:10.115Z,14.27
2022-07-25T20:40:45.160Z,13.57
2022-07-25T20:43:15.961Z,10.52
2022-07-25T20:45:43.452Z,13.02
2022-07-25T20:48:11.123Z,18.83
2022-07-25T20:50:38.795Z,14.20
2022-07-25T20:53:07.153Z,11.18
2022-07-25T20:55:34.628Z,11.07
2022-07-25T20:58:02.138Z,8.95
2022-07-25T21:00:30.853Z,8.60
2022-07-25T21:02:58.949Z,9.77
2022-07-25T21:05:26.807Z,11.35
2022-07-25T21:07:54.435Z,8.45
2022-07-25T21:10:21.955Z,15.15
2022-07-25T21:12:49.278Z,20.13
2022-07-25T21:15:16.458Z,9.77
2022-07-25T21:17:43.780Z,11.60
2022-07-25T21:20:14.518Z,13.13
2022-07-25T21:22:42.587Z,19.20
2022-07-25T21:25:11.013Z,16.67
2022-07-25T21:27:39.101Z,12.35
2022-07-25T21:30:09.199Z,11.98
2022-07-25T21:32:36.403Z,11.18
2022-07-25T21:35:05.101Z,12.30
2022-07-25T21:37:32.857Z,10.65
2022-07-25T21:40:00.370Z,11.52
2022-07-25T21:42:27.547Z,12.77
2022-07-25T21:44:54.780Z,12.18
2022-07-25T21:47:21.976Z,10.85
2022-07-25T21:50:08.240Z,10.48
2022-07-25T21:52:35.462Z,15.32
2022-07-25T21:55:05.958Z,10.73
2022-07-25T21:57:33.158Z,7.22
2022-07-25T22:00:00.437Z,12.43
2022-07-25T22:02:27.939Z,11.60
2022-07-25T22:04:57.037Z,11.52
2022-07-25T22:07:25.427Z,7.97
2022-07-25T22:09:52.384Z,9.82
2022-07-25T22:12:19.507Z,9.43
2022-07-25T22:14:46.740Z,8.18
2022-07-25T22:17:14.019Z,11.02
2022-07-25T22:19:41.528Z,9.68
2022-07-25T22:22:08.742Z,14.00
2022-07-25T22:24:35.942Z,14.82
2022-07-25T22:27:03.566Z,13.55
2022-07-25T22:29:30.793Z,9.70
2022-07-25T22:32:04.210Z,10.68
2022-07-25T22:34:31.703Z,8.90
2022-07-25T22:36:59.708Z,9.32
2022-07-25T22:39:27.462Z,9.25
2022-07-25T22:41:54.736Z,9.80
2022-07-25T22:44:21.968Z,14.40
2022-07-25T22:46:49.518Z,12.18
2022-07-25T22:49:16.707Z,14.18
2022-07-25T22:51:44.085Z,12.30
2022-07-25T22:54:11.619Z,10.57
2022-07-25T22:56:38.872Z,6.72
2022-07-25T22:59:06.112Z,8.80
2022-07-25T23:01:33.607Z,8.75
2022-07-25T23:04:04.350Z,9.13
2022-07-25T23:06:32.710Z,12.52
2022-07-25T23:09:00.181Z,8.20
2022-07-25T23:11:27.428Z,9.63
2022-07-25T23:13:54.651Z,11.93
2022-07-25T23:16:23.164Z,10.48
2022-07-25T23:18:50.421Z,13.80
2022-07-25T23:21:17.809Z,16.27
2022-07-25T23:23:45.108Z,10.00
2022-07-25T23:26:12.409Z,10.50
2022-07-25T23:28:39.712Z,10.00
2022-07-25T23:31:07.418Z,12.98
2022-07-25T23:33:34.925Z,7.75
2022-07-25T23:36:02.287Z,5.50
2022-07-25T23:38:29.830Z,9.70
2022-07-25T23:40:57.172Z,10.25
2022-07-25T23:43:56.271Z,10.75
2022-07-25T23:46:14.154Z,10.15
2022-07-25T23:48:42.381Z,9.68
2022-07-25T23:51:09.780Z,7.80
2022-07-25T23:53:37.260Z,6.45
2022-07-25T23:56:04.754Z,11.05
2022-07-25T23:58:35.075Z,7.82
